createdAt,value
2019-04-03T00:02:02.646Z,31.70
2019-04-03T00:04:33.975Z,29.20
2019-04-03T00:07:02.303Z,32.53
2019-04-03T00:09:31.960Z,29.27
2019-04-03T00:12:00.160Z,30.40
2019-04-03T00:14:28.345Z,24.30
2019-04-03T00:16:56.617Z,27.20
2019-04-03T00:19:24.825Z,29.60
2019-04-03T00:21:53.008Z,25.50
2019-04-03T00:24:22.594Z,25.53
2019-04-03T00:26:52.684Z,29.97
2019-04-03T00:29:22.672Z,30.50
2019-04-03T00:31:52.992Z,31.07
2019-04-03T00:34:22.994Z,27.93
2019-04-03T00:36:52.924Z,27.93
2019-04-03T00:39:20.937Z,28.00
2019-04-03T00:41:49.190Z,30.90
2019-04-03T00:44:17.388Z,27.60
2019-04-03T00:46:45.584Z,26.67
2019-04-03T00:49:13.889Z,28.83
2019-04-03T00:51:42.144Z,27.47
2019-04-03T00:54:10.332Z,28.20
2019-04-03T00:56:38.554Z,28.87
2019-04-03T00:59:06.773Z,31.00
2019-04-03T01:01:34.960Z,28.17
2019-04-03T01:04:03.294Z,31.53
2019-04-03T01:06:31.652Z,28.20
2019-04-03T01:09:00.075Z,27.83
2019-04-03T01:11:28.828Z,29.63
2019-04-03T01:13:58.280Z,28.00
2019-04-03T01:16:26.540Z,32.30
2019-04-03T01:18:54.756Z,29.90
2019-04-03T01:21:23.099Z,27.00
2019-04-03T01:23:51.352Z,27.43
2019-04-03T01:26:19.531Z,25.07
2019-04-03T01:28:47.720Z,27.67
2019-04-03T01:31:15.942Z,32.70
2019-04-03T01:33:46.122Z,30.93
2019-04-03T01:36:14.102Z,29.73
2019-04-03T01:38:42.321Z,27.20
2019-04-03T01:41:11.599Z,36.43
2019-04-03T01:43:40.802Z,28.03
2019-04-03T01:46:09.028Z,31.33
2019-04-03T01:48:37.207Z,33.63
2019-04-03T01:51:05.424Z,30.10
2019-04-03T01:53:33.616Z,30.13
2019-04-03T01:56:04.533Z,30.57
2019-04-03T01:58:31.736Z,35.07
2019-04-03T02:00:59.983Z,32.87
2019-04-03T02:03:28.187Z,30.90
2019-04-03T02:05:56.367Z,28.20
2019-04-03T02:08:24.559Z,34.23
2019-04-03T02:10:52.832Z,26.33
2019-04-03T02:13:21.730Z,29.60
2019-04-03T02:15:52.134Z,27.90
2019-04-03T02:18:20.273Z,38.80
2019-04-03T02:20:48.501Z,32.07
2019-04-03T02:23:16.688Z,35.70
2019-04-03T02:25:44.906Z,27.40
2019-04-03T02:28:13.100Z,28.00
2019-04-03T02:30:45.048Z,31.97
2019-04-03T02:33:11.254Z,34.37
2019-04-03T02:35:40.462Z,33.30
2019-04-03T02:38:09.188Z,29.47
2019-04-03T02:40:37.445Z,31.50
2019-04-03T02:43:05.702Z,34.43
2019-04-03T02:45:34.430Z,35.77
2019-04-03T02:48:05.512Z,33.87
2019-04-03T02:50:32.503Z,32.77
2019-04-03T02:53:02.447Z,31.30
2019-04-03T02:55:30.734Z,29.70
2019-04-03T02:57:58.964Z,31.10
2019-04-03T03:00:27.237Z,32.23
2019-04-03T03:02:55.428Z,29.90
2019-04-03T03:05:26.838Z,29.33
2019-04-03T03:07:53.550Z,35.27
2019-04-03T03:10:21.794Z,29.37
2019-04-03T03:12:49.985Z,40.43
2019-04-03T03:15:19.281Z,36.10
2019-04-03T03:17:48.626Z,34.57
2019-04-03T03:20:18.637Z,33.23
2019-04-03T03:22:49.685Z,34.73
2019-04-03T03:25:18.347Z,37.63
2019-04-03T03:27:47.081Z,29.90
2019-04-03T03:30:32.751Z,35.07
2019-04-03T03:32:45.365Z,29.90
2019-04-03T03:35:22.835Z,37.47
2019-04-03T03:37:45.196Z,34.33
2019-04-03T03:40:16.515Z,32.63
2019-04-03T03:42:43.702Z,35.90
2019-04-03T03:45:12.159Z,38.53
2019-04-03T03:47:40.870Z,34.03
2019-04-03T03:50:09.559Z,33.50
2019-04-03T03:52:38.605Z,37.50
2019-04-03T03:55:08.428Z,37.27
2019-04-03T03:57:39.108Z,32.97
2019-04-03T04:00:07.868Z,33.10
2019-04-03T04:02:37.981Z,37.23
2019-04-03T04:05:11.178Z,36.60
2019-04-03T04:07:38.157Z,37.67
2019-04-03T04:10:06.913Z,32.90
2019-04-03T04:12:39.834Z,37.03
2019-04-03T04:15:05.909Z,38.00
2019-04-03T04:17:34.560Z,38.43
2019-04-03T04:20:05.139Z,39.43
2019-04-03T04:22:32.701Z,33.20
2019-04-03T04:25:02.787Z,43.63
2019-04-03T04:27:33.603Z,41.57
2019-04-03T04:30:01.252Z,43.97
2019-04-03T04:32:29.472Z,40.30
2019-04-03T04:34:57.688Z,38.03
2019-04-03T04:37:26.444Z,40.20
2019-04-03T04:39:56.035Z,38.20
2019-04-03T04:42:24.468Z,36.27
2019-04-03T04:44:53.745Z,36.40
2019-04-03T04:47:21.943Z,40.03
2019-04-03T04:49:50.132Z,44.60
2019-04-03T04:52:18.345Z,43.93
2019-04-03T04:54:46.576Z,45.60
2019-04-03T04:57:14.938Z,44.90
2019-04-03T04:59:45.226Z,41.85
2019-04-03T05:02:13.029Z,38.97
2019-04-03T05:04:41.280Z,39.93
2019-04-03T05:07:09.537Z,38.93
2019-04-03T05:09:37.746Z,46.63
2019-04-03T05:12:05.983Z,45.70
2019-04-03T05:14:34.428Z,44.30
2019-04-03T05:17:02.835Z,39.40
2019-04-03T05:19:31.146Z,44.53
2019-04-03T05:21:59.344Z,36.97
2019-04-03T05:24:28.846Z,39.77
2019-04-03T05:26:57.565Z,44.40
2019-04-03T05:29:25.801Z,41.57
2019-04-03T05:31:54.093Z,47.77
2019-04-03T05:34:22.444Z,51.20
2019-04-03T05:36:50.678Z,43.67
2019-04-03T05:39:18.858Z,44.30
2019-04-03T05:41:47.081Z,42.00
2019-04-03T05:44:15.390Z,40.47
2019-04-03T05:46:43.623Z,37.23
2019-04-03T05:49:12.251Z,41.17
2019-04-03T05:51:40.581Z,40.90
2019-04-03T05:54:08.804Z,42.27
2019-04-03T05:56:37.127Z,42.60
2019-04-03T05:59:05.434Z,44.13
2019-04-03T06:01:33.645Z,45.07
2019-04-03T06:04:01.869Z,42.77
2019-04-03T06:06:30.059Z,44.50
2019-04-03T06:08:58.285Z,38.47
2019-04-03T06:11:26.464Z,38.50
2019-04-03T06:13:54.655Z,42.37
2019-04-03T06:16:24.561Z,47.83
2019-04-03T06:18:53.039Z,44.50
2019-04-03T06:21:21.364Z,39.10
2019-04-03T06:23:52.066Z,46.40
2019-04-03T06:26:19.612Z,39.50
2019-04-03T06:28:47.936Z,45.47
2019-04-03T06:31:16.144Z,39.53
2019-04-03T06:33:44.410Z,41.67
2019-04-03T06:36:12.894Z,37.67
2019-04-03T06:38:41.204Z,54.30
2019-04-03T06:41:09.636Z,42.73
2019-04-03T06:43:37.921Z,47.63
2019-04-03T06:46:06.169Z,40.13
2019-04-03T06:48:34.587Z,41.07
2019-04-03T06:51:04.264Z,52.53
2019-04-03T06:53:32.845Z,39.87
2019-04-03T06:56:01.067Z,48.03
2019-04-03T06:58:37.293Z,41.87
2019-04-03T07:00:59.762Z,43.60
2019-04-03T07:03:28.174Z,40.40
2019-04-03T07:05:57.391Z,45.13
2019-04-03T07:08:32.790Z,54.90
2019-04-03T07:10:55.667Z,43.10
2019-04-03T07:13:24.977Z,35.20
2019-04-03T07:15:55.738Z,46.90
2019-04-03T07:18:23.076Z,38.10
2019-04-03T07:20:52.224Z,39.27
2019-04-03T07:23:20.756Z,39.40
2019-04-03T07:25:48.990Z,36.27
2019-04-03T07:28:17.293Z,34.33
2019-04-03T07:30:45.508Z,33.93
2019-04-03T07:33:13.729Z,37.90
2019-04-03T07:35:42.021Z,36.33
2019-04-03T07:38:10.273Z,35.70
2019-04-03T07:40:39.359Z,40.57
2019-04-03T07:43:08.497Z,37.33
2019-04-03T07:45:36.687Z,39.87
2019-04-03T07:48:06.698Z,36.70
2019-04-03T07:50:36.402Z,38.97
2019-04-03T07:53:04.740Z,35.73
2019-04-03T07:55:33.901Z,34.13
2019-04-03T07:58:02.088Z,34.90
2019-04-03T08:00:30.300Z,43.00
2019-04-03T08:02:58.505Z,36.67
2019-04-03T08:05:26.767Z,47.25
2019-04-03T08:07:55.330Z,36.43
2019-04-03T08:10:23.756Z,32.77
2019-04-03T08:12:51.936Z,36.00
2019-04-03T08:15:20.374Z,37.33
2019-04-03T08:17:49.896Z,39.50
2019-04-03T08:20:20.116Z,37.53
2019-04-03T08:22:48.759Z,39.03
2019-04-03T08:25:16.977Z,36.00
2019-04-03T08:27:45.242Z,37.77
2019-04-03T08:30:13.687Z,37.57
2019-04-03T08:32:41.933Z,38.77
2019-04-03T08:35:21.160Z,37.77
2019-04-03T08:37:41.983Z,35.70
2019-04-03T08:40:10.716Z,36.47
2019-04-03T08:42:39.037Z,35.50
2019-04-03T08:45:10.479Z,32.30
2019-04-03T08:47:38.769Z,34.17
2019-04-03T08:50:08.162Z,34.63
2019-04-03T08:52:37.095Z,32.60
2019-04-03T08:55:07.155Z,32.60
2019-04-03T08:57:37.040Z,37.17
2019-04-03T09:00:06.774Z,35.60
2019-04-03T09:02:34.992Z,33.70
2019-04-03T09:05:04.060Z,33.27
2019-04-03T09:07:32.540Z,35.43
2019-04-03T09:10:01.415Z,38.17
2019-04-03T09:12:29.857Z,34.57
2019-04-03T09:14:58.050Z,36.50
2019-04-03T09:17:26.273Z,34.15
2019-04-03T09:19:56.320Z,36.53
2019-04-03T09:22:24.401Z,28.80
2019-04-03T09:24:52.593Z,31.23
2019-04-03T09:27:20.848Z,30.27
2019-04-03T09:29:49.642Z,31.90
2019-04-03T09:32:18.019Z,31.30
2019-04-03T09:34:46.253Z,33.90
2019-04-03T09:37:17.488Z,33.20
2019-04-03T09:39:44.860Z,31.27
2019-04-03T09:42:14.081Z,31.63
2019-04-03T09:44:43.167Z,30.47
2019-04-03T09:47:11.413Z,28.20
2019-04-03T09:49:42.302Z,30.57
2019-04-03T09:52:09.562Z,30.23
2019-04-03T09:54:37.749Z,30.47
2019-04-03T09:57:05.991Z,35.63
2019-04-03T09:59:37.437Z,30.93
2019-04-03T10:02:04.527Z,31.85
2019-04-03T10:04:32.851Z,30.90
2019-04-03T10:07:02.020Z,27.13
2019-04-03T10:09:30.989Z,33.00
2019-04-03T10:11:59.244Z,31.57
2019-04-03T10:14:28.114Z,27.10
2019-04-03T10:16:57.396Z,27.90
2019-04-03T10:19:25.880Z,28.73
2019-04-03T10:21:54.098Z,28.97
2019-04-03T10:24:22.308Z,27.37
2019-04-03T10:26:50.497Z,27.50
2019-04-03T10:29:19.541Z,31.70
2019-04-03T10:31:47.857Z,29.73
2019-04-03T10:34:16.040Z,29.00
2019-04-03T10:39:13.041Z,23.23
2019-04-03T10:41:41.655Z,24.60
2019-04-03T10:44:10.357Z,28.30
2019-04-03T10:46:38.842Z,31.03
2019-04-03T10:49:07.292Z,24.17
2019-04-03T10:51:35.588Z,24.20
2019-04-03T10:54:04.429Z,24.90
2019-04-03T10:56:32.888Z,24.70
2019-04-03T10:59:11.059Z,34.70
2019-04-03T11:01:31.282Z,29.27
2019-04-03T11:03:59.680Z,28.30
2019-04-03T11:06:28.076Z,27.00
2019-04-03T11:08:56.474Z,26.20
2019-04-03T11:11:24.841Z,23.80
2019-04-03T11:13:53.169Z,26.47
2019-04-03T11:16:21.400Z,21.40
2019-04-03T11:18:58.542Z,24.53
2019-04-03T11:21:20.004Z,24.47
2019-04-03T11:23:48.415Z,24.83
2019-04-03T11:26:18.658Z,22.80
2019-04-03T11:28:46.922Z,20.80
2019-04-03T11:31:24.930Z,28.83
2019-04-03T11:33:46.174Z,28.90
2019-04-03T11:36:14.816Z,27.13
2019-04-03T11:38:43.016Z,26.20
2019-04-03T11:41:14.903Z,22.65
2019-04-03T11:43:41.128Z,21.27
2019-04-03T11:46:09.453Z,20.80
2019-04-03T11:48:38.002Z,21.20
2019-04-03T11:51:06.439Z,24.37
2019-04-03T11:53:35.962Z,23.70
2019-04-03T11:56:04.310Z,23.47
2019-04-03T11:58:32.498Z,23.23
2019-04-03T12:01:00.798Z,21.57
2019-04-03T12:03:28.986Z,25.03
2019-04-03T12:05:57.343Z,22.83
2019-04-03T12:08:25.923Z,23.47
2019-04-03T12:10:55.472Z,21.93
2019-04-03T12:13:24.685Z,25.37
2019-04-03T12:15:54.289Z,24.20
2019-04-03T12:18:22.989Z,20.60
2019-04-03T12:20:51.227Z,27.20
2019-04-03T12:23:19.465Z,20.73
2019-04-03T12:25:47.998Z,23.53
2019-04-03T12:28:18.434Z,19.20
2019-04-03T12:30:46.221Z,20.13
2019-04-03T12:33:14.441Z,24.63
2019-04-03T12:35:42.908Z,20.20
2019-04-03T12:38:11.425Z,24.20
2019-04-03T12:40:40.041Z,20.40
2019-04-03T12:43:08.604Z,21.67
2019-04-03T12:45:36.975Z,20.13
2019-04-03T12:48:05.205Z,23.90
2019-04-03T12:50:33.606Z,22.80
2019-04-03T12:53:01.910Z,23.20
2019-04-03T12:55:30.294Z,24.07
2019-04-03T12:57:58.625Z,22.93
2019-04-03T13:00:27.142Z,25.97
2019-04-03T13:02:55.417Z,21.70
2019-04-03T13:05:24.257Z,20.40
2019-04-03T13:07:52.510Z,26.13
2019-04-03T13:10:21.275Z,31.10
2019-04-03T13:12:49.565Z,26.37
2019-04-03T13:15:18.329Z,28.80
2019-04-03T13:17:46.717Z,24.90
2019-04-03T13:20:15.618Z,21.73
2019-04-03T13:22:43.980Z,25.23
2019-04-03T13:25:12.305Z,25.93
2019-04-03T13:27:40.750Z,22.33
2019-04-03T13:30:12.436Z,30.53
2019-04-03T13:32:39.718Z,26.43
2019-04-03T13:35:08.172Z,26.77
2019-04-03T13:37:36.375Z,27.13
2019-04-03T13:40:07.039Z,32.80
2019-04-03T13:42:35.727Z,27.63
2019-04-03T13:45:05.516Z,26.43
2019-04-03T13:47:33.823Z,26.70
2019-04-03T13:50:03.524Z,26.70
2019-04-03T13:52:40.390Z,32.83
2019-04-03T13:55:02.175Z,30.47
2019-04-03T13:57:30.600Z,26.53
2019-04-03T14:00:01.648Z,25.30
2019-04-03T14:02:28.888Z,29.00
2019-04-03T14:04:57.520Z,28.80
2019-04-03T14:07:27.596Z,25.90
2019-04-03T14:09:56.546Z,29.23
2019-04-03T14:12:24.929Z,27.60
2019-04-03T14:14:53.500Z,26.97
2019-04-03T14:17:22.260Z,25.67
2019-04-03T14:19:52.310Z,24.87
2019-04-03T14:22:21.580Z,25.17
2019-04-03T14:24:52.450Z,27.43
2019-04-03T14:27:24.472Z,24.17
2019-04-03T14:29:49.732Z,26.33
2019-04-03T14:32:19.842Z,24.03
2019-04-03T14:34:47.931Z,25.93
2019-04-03T14:37:16.452Z,24.07
2019-04-03T14:39:44.692Z,20.27
2019-04-03T14:42:12.978Z,23.63
2019-04-03T14:44:41.975Z,25.83
2019-04-03T14:47:11.090Z,24.80
2019-04-03T14:49:39.490Z,25.80
2019-04-03T14:52:07.698Z,27.77
2019-04-03T14:54:36.150Z,24.23
2019-04-03T14:57:13.269Z,26.00
2019-04-03T14:59:35.344Z,21.10
2019-04-03T15:02:03.821Z,25.33
2019-04-03T15:04:36.054Z,23.63
2019-04-03T15:07:08.067Z,25.20
2019-04-03T15:09:33.012Z,24.53
2019-04-03T15:12:01.499Z,22.10
2019-04-03T15:14:29.893Z,19.70
2019-04-03T15:16:58.157Z,20.70
2019-04-03T15:19:26.397Z,19.30
2019-04-03T15:21:56.715Z,20.93
2019-04-03T15:24:24.631Z,24.63
2019-04-03T15:26:53.427Z,18.70
2019-04-03T15:29:23.026Z,18.90
2019-04-03T15:31:51.555Z,20.50
2019-04-03T15:34:19.820Z,18.13
2019-04-03T15:36:50.583Z,19.00
2019-04-03T15:39:18.314Z,20.00
2019-04-03T15:41:46.661Z,19.17
2019-04-03T15:44:15.797Z,20.40
2019-04-03T15:46:43.992Z,21.63
2019-04-03T15:49:12.191Z,17.63
2019-04-03T15:51:40.515Z,19.50
2019-04-03T15:54:09.678Z,21.40
2019-04-03T15:56:37.867Z,19.43
2019-04-03T15:59:06.279Z,21.23
2019-04-03T16:01:34.891Z,19.50
2019-04-03T16:04:03.421Z,19.43
2019-04-03T16:06:31.795Z,24.10
2019-04-03T16:09:01.587Z,18.50
2019-04-03T16:11:31.258Z,20.40
2019-04-03T16:13:59.580Z,19.23
2019-04-03T16:16:29.340Z,19.00
2019-04-03T16:18:57.679Z,20.20
2019-04-03T16:21:29.341Z,23.60
2019-04-03T16:23:56.688Z,21.27
2019-04-03T16:26:25.584Z,22.23
2019-04-03T16:28:56.223Z,21.40
2019-04-03T16:31:23.874Z,21.70
2019-04-03T16:33:52.357Z,20.30
2019-04-03T16:36:20.863Z,21.20
2019-04-03T16:38:49.474Z,23.73
2019-04-03T16:41:17.912Z,23.40
2019-04-03T16:43:46.141Z,24.57
2019-04-03T16:46:14.332Z,24.00
2019-04-03T16:48:42.535Z,18.50
2019-04-03T16:51:11.152Z,24.13
2019-04-03T16:53:40.094Z,22.97
2019-04-03T16:56:08.484Z,23.73
2019-04-03T16:58:37.161Z,26.00
2019-04-03T17:01:05.493Z,21.80
2019-04-03T17:03:33.836Z,25.20
2019-04-03T17:06:02.192Z,26.27
2019-04-03T17:08:30.375Z,24.60
2019-04-03T17:10:58.577Z,26.35
2019-04-03T17:13:26.766Z,28.80
2019-04-03T17:15:55.105Z,23.63
2019-04-03T17:18:23.361Z,24.47
2019-04-03T17:20:54.593Z,31.47
2019-04-03T17:23:21.489Z,27.53
2019-04-03T17:25:51.591Z,26.60
2019-04-03T17:28:19.943Z,26.90
2019-04-03T17:30:51.338Z,28.40
2019-04-03T17:33:18.145Z,23.90
2019-04-03T17:35:48.382Z,25.80
2019-04-03T17:38:16.812Z,27.90
2019-04-03T17:40:45.033Z,27.10
2019-04-03T17:43:13.913Z,26.90
2019-04-03T17:45:43.155Z,28.40
2019-04-03T17:48:13.062Z,27.87
2019-04-03T17:50:41.274Z,27.20
2019-04-03T17:53:09.464Z,28.20
2019-04-03T17:55:37.648Z,26.03
2019-04-03T17:58:05.889Z,24.83
2019-04-03T18:00:34.067Z,28.93
2019-04-03T18:03:02.248Z,25.70
2019-04-03T18:05:33.090Z,30.70
2019-04-03T18:08:00.385Z,24.50
2019-04-03T18:10:28.574Z,27.60
2019-04-03T18:12:56.800Z,24.73
2019-04-03T18:15:27.245Z,27.43
2019-04-03T18:17:54.892Z,27.97
2019-04-03T18:20:23.125Z,28.07
2019-04-03T18:22:51.337Z,23.90
2019-04-03T18:25:19.569Z,25.93
2019-04-03T18:27:47.786Z,27.67
2019-04-03T18:30:16.144Z,35.93
2019-04-03T18:32:45.993Z,38.50
2019-04-03T18:35:14.433Z,26.70
2019-04-03T18:37:42.621Z,31.10
2019-04-03T18:40:13.896Z,30.50
2019-04-03T18:42:40.781Z,27.90
2019-04-03T18:45:09.132Z,25.80
2019-04-03T18:47:41.400Z,29.10
2019-04-03T18:50:10.000Z,27.90
2019-04-03T18:52:38.792Z,33.90
2019-04-03T18:55:07.557Z,32.73
2019-04-03T18:57:35.756Z,31.80
2019-04-03T19:00:05.649Z,28.03
2019-04-03T19:02:34.463Z,27.67
2019-04-03T19:05:04.520Z,25.30
2019-04-03T19:07:32.714Z,28.85
2019-04-03T19:10:06.852Z,29.70
2019-04-03T19:12:35.798Z,28.30
2019-04-03T19:17:29.727Z,31.30
2019-04-03T19:20:09.657Z,24.50
2019-04-03T19:22:27.824Z,36.20
2019-04-03T19:24:58.591Z,28.03
2019-04-03T19:27:26.811Z,29.43
2019-04-03T19:29:55.916Z,31.53
2019-04-03T19:32:25.075Z,27.20
2019-04-03T19:34:53.359Z,32.33
2019-04-03T19:37:21.598Z,49.13
2019-04-03T19:39:49.799Z,30.70
2019-04-03T19:42:17.991Z,39.27
2019-04-03T19:44:47.203Z,34.63
2019-04-03T19:47:16.071Z,38.90
2019-04-03T19:49:44.294Z,33.67
2019-04-03T19:52:12.514Z,28.63
2019-04-03T19:54:40.725Z,33.50
2019-04-03T19:57:08.948Z,30.40
2019-04-03T19:59:37.161Z,29.80
2019-04-03T20:02:05.548Z,32.97
2019-04-03T20:04:33.736Z,30.93
2019-04-03T20:07:01.960Z,32.80
2019-04-03T20:09:32.689Z,41.60
2019-04-03T20:12:00.273Z,32.70
2019-04-03T20:14:28.468Z,33.27
2019-04-03T20:16:58.594Z,34.37
2019-04-03T20:19:27.347Z,43.33
2019-04-03T20:21:55.669Z,33.40
2019-04-03T20:24:25.298Z,35.70
2019-04-03T20:26:53.732Z,39.70
2019-04-03T20:29:22.883Z,41.90
2019-04-03T20:31:51.105Z,35.80
2019-04-03T20:34:19.319Z,35.43
2019-04-03T20:36:50.656Z,34.97
2019-04-03T20:39:17.463Z,42.77
2019-04-03T20:41:45.720Z,38.30
2019-04-03T20:44:16.752Z,38.43
2019-04-03T20:46:43.862Z,37.93
2019-04-03T20:49:12.077Z,34.10
2019-04-03T20:51:40.445Z,38.33
2019-04-03T20:54:11.630Z,39.33
2019-04-03T20:56:38.644Z,33.40
2019-04-03T20:59:06.873Z,39.70
2019-04-03T21:01:35.433Z,40.13
2019-04-03T21:04:04.338Z,31.80
2019-04-03T21:06:33.477Z,36.77
2019-04-03T21:09:01.656Z,36.57
2019-04-03T21:11:29.891Z,36.03
2019-04-03T21:13:58.075Z,46.80
2019-04-03T21:16:33.086Z,33.83
2019-04-03T21:18:56.217Z,34.33
2019-04-03T21:21:25.713Z,31.93
2019-04-03T21:23:54.321Z,35.83
2019-04-03T21:26:22.509Z,35.77
2019-04-03T21:28:51.632Z,34.80
2019-04-03T21:31:19.869Z,34.73
2019-04-03T21:33:48.086Z,37.60
2019-04-03T21:36:16.303Z,35.03
2019-04-03T21:38:44.490Z,31.03
2019-04-03T21:41:12.708Z,34.93
2019-04-03T21:43:40.905Z,32.13
2019-04-03T21:46:09.565Z,31.80
2019-04-03T21:48:37.824Z,33.77
2019-04-03T21:51:06.069Z,34.20
2019-04-03T21:53:34.308Z,37.90
2019-04-03T21:56:02.798Z,30.33
2019-04-03T21:58:31.106Z,33.47
2019-04-03T22:01:00.845Z,33.30
2019-04-03T22:03:29.073Z,35.53
2019-04-03T22:05:57.287Z,35.47
2019-04-03T22:08:27.023Z,37.70
2019-04-03T22:10:56.317Z,37.20
2019-04-03T22:13:24.536Z,32.70
2019-04-03T22:15:52.777Z,36.03
2019-04-03T22:18:23.505Z,32.60
2019-04-03T22:20:50.940Z,28.93
2019-04-03T22:23:19.268Z,34.80
2019-04-03T22:25:47.483Z,32.07
2019-04-03T22:28:15.709Z,37.10
2019-04-03T22:30:43.903Z,34.83
2019-04-03T22:33:12.132Z,35.43
2019-04-03T22:35:40.312Z,31.93
2019-04-03T22:38:08.512Z,31.70
2019-04-03T22:40:36.737Z,33.97
2019-04-03T22:43:04.934Z,32.10
2019-04-03T22:45:33.154Z,33.17
2019-04-03T22:48:01.371Z,28.37
2019-04-03T22:50:30.869Z,30.23
2019-04-03T22:52:59.077Z,30.50
2019-04-03T22:55:27.298Z,34.07
2019-04-03T22:57:55.479Z,31.90
2019-04-03T23:00:25.505Z,33.53
2019-04-03T23:02:53.618Z,32.43
2019-04-03T23:05:21.804Z,36.80
2019-04-03T23:07:52.034Z,34.00
2019-04-03T23:10:20.858Z,30.37
2019-04-03T23:12:49.097Z,33.97
2019-04-03T23:15:17.283Z,33.33
2019-04-03T23:17:45.471Z,30.90
2019-04-03T23:20:13.692Z,31.83
2019-04-03T23:22:41.888Z,31.03
2019-04-03T23:25:10.109Z,32.40
2019-04-03T23:27:38.295Z,36.93
2019-04-03T23:30:10.065Z,36.53
2019-04-03T23:32:36.543Z,33.77
2019-04-03T23:35:05.100Z,31.60
2019-04-03T23:37:33.301Z,31.97
2019-04-03T23:40:01.635Z,31.27
2019-04-03T23:42:30.818Z,32.63
2019-04-03T23:44:59.053Z,33.63
2019-04-03T23:47:27.261Z,32.43
2019-04-03T23:49:55.456Z,43.23
2019-04-03T23:52:23.638Z,34.27
2019-04-03T23:54:51.873Z,32.23
2019-04-03T23:57:20.153Z,31.70
2019-04-03T23:59:48.384Z,30.80
